Time;durP1;ratioP1;P1;durP2;ratioP2;P2;SDS_P1;SDS_P2;PMS_P1;PMS_P2;Temp;Humidity;BMP_temperature;BMP_pressure;BME280_temperature;BME280_humidity;BME280_pressure;Samples;Min_cycle;Max_cycle;Signal;HPM_P1;HPM_P2
2024/04/11 00:01:54;;;;;;;27.30;19.70;;;16.30;99.90;;;;;;5447111;26;20079;-85
2024/04/11 00:04:21;;;;;;;25.05;18.92;;;16.30;99.90;;;;;;5421451;26;20013;-85
2024/04/11 00:06:48;;;;;;;24.48;18.90;;;16.20;99.90;;;;;;5412863;26;20396;-85
2024/04/11 00:09:15;;;;;;;29.23;19.17;;;16.10;99.90;;;;;;5430387;26;20075;-85
2024/04/11 00:11:42;;;;;;;20.50;18.27;;;16.10;99.90;;;;;;5432640;26;20029;-85
2024/04/11 00:14:11;;;;;;;27.40;18.50;;;16.00;99.90;;;;;;5462328;26;20009;-85
2024/04/11 00:16:38;;;;;;;28.55;18.92;;;16.00;99.90;;;;;;5429839;26;20066;-84
2024/04/11 00:19:06;;;;;;;24.30;18.42;;;16.00;99.90;;;;;;5456298;26;20020;-84
2024/04/11 00:21:32;;;;;;;29.13;18.17;;;15.90;99.90;;;;;;5420910;26;20456;-84
2024/04/11 00:24:00;;;;;;;24.73;17.88;;;15.90;99.90;;;;;;5401962;26;20009;-85
2024/04/11 00:26:26;;;;;;;34.53;18.63;;;15.90;99.90;;;;;;5421183;26;20009;-84
2024/04/11 00:28:55;;;;;;;32.58;17.95;;;15.80;99.90;;;;;;5404037;26;20012;-85
2024/04/11 00:31:21;;;;;;;25.60;17.95;;;15.80;99.90;;;;;;5426045;26;20002;-84
2024/04/11 00:34:32;;;;;;;19.67;17.77;;;15.70;99.90;;;;;;5427947;26;20025;-84
2024/04/11 00:36:40;;;;;;;25.85;17.38;;;15.60;99.90;;;;;;5456521;26;19999;-84
2024/04/11 00:39:06;;;;;;;31.83;17.60;;;15.60;99.90;;;;;;5409253;26;20002;-84
2024/04/11 00:41:33;;;;;;;26.48;17.58;;;15.60;99.90;;;;;;5426993;26;20038;-84
2024/04/11 00:44:00;;;;;;;27.15;17.77;;;15.50;99.90;;;;;;5420751;26;19991;-84
2024/04/11 00:46:27;;;;;;;27.20;17.70;;;15.50;99.90;;;;;;5449021;26;20468;-84
2024/04/11 00:48:54;;;;;;;24.83;18.08;;;15.50;99.90;;;;;;5422072;26;19991;-84
2024/04/11 00:51:22;;;;;;;25.35;18.08;;;15.50;99.90;;;;;;5422068;26;20006;-84
2024/04/11 00:53:51;;;;;;;30.33;18.63;;;15.50;99.90;;;;;;5430389;26;20034;-84
2024/04/11 00:56:17;;;;;;;29.63;19.30;;;15.50;99.90;;;;;;5429996;26;19991;-84
2024/04/11 00:58:44;;;;;;;26.65;18.75;;;15.50;99.90;;;;;;5430114;26;20009;-84
2024/04/11 01:01:11;;;;;;;23.45;18.52;;;15.50;99.90;;;;;;5424207;26;20023;-84
2024/04/11 01:03:38;;;;;;;33.53;19.05;;;15.50;99.90;;;;;;5399616;26;19999;-84
2024/04/11 01:06:05;;;;;;;28.90;19.13;;;15.50;99.90;;;;;;5460401;26;20002;-85
2024/04/11 01:08:32;;;;;;;30.90;18.80;;;15.40;99.90;;;;;;5457294;26;19999;-84
2024/04/11 01:10:58;;;;;;;29.60;19.10;;;15.40;99.90;;;;;;5424445;26;20013;-85
2024/04/11 01:13:24;;;;;;;26.38;19.88;;;15.40;99.90;;;;;;5395298;26;20440;-85
2024/04/11 01:15:50;;;;;;;32.88;18.58;;;15.40;99.90;;;;;;5394877;26;20009;-85
2024/04/11 01:18:19;;;;;;;24.80;19.45;;;15.40;99.90;;;;;;5395179;26;20013;-85
2024/04/11 01:20:46;;;;;;;22.23;19.45;;;15.30;99.90;;;;;;5429942;26;19994;-84
2024/04/11 01:23:13;;;;;;;34.03;19.92;;;15.30;99.90;;;;;;5460453;26;19990;-84
2024/04/11 01:25:43;;;;;;;22.10;19.15;;;15.30;99.90;;;;;;5396477;26;20014;-84
2024/04/11 01:28:10;;;;;;;23.75;19.88;;;15.30;99.90;;;;;;5424392;26;20022;-84
2024/04/11 01:30:39;;;;;;;29.98;19.27;;;15.20;99.90;;;;;;5407999;26;20012;-84
2024/04/11 01:33:09;;;;;;;26.58;18.67;;;15.20;99.90;;;;;;5418332;26;20048;-84
2024/04/11 01:35:36;;;;;;;28.75;19.38;;;15.20;99.90;;;;;;5416741;26;19991;-85
2024/04/11 01:38:05;;;;;;;26.50;19.77;;;15.10;99.90;;;;;;5417267;26;19999;-84
2024/04/11 01:40:41;;;;;;;24.52;19.60;;;15.10;99.90;;;;;;5447578;26;20325;-84
2024/04/11 01:43:09;;;;;;;26.65;19.98;;;15.10;99.90;;;;;;5418218;26;20012;-85
2024/04/11 01:45:36;;;;;;;28.67;19.48;;;15.10;99.90;;;;;;5416971;26;20402;-85
2024/04/11 01:48:02;;;;;;;28.40;19.83;;;15.10;99.90;;;;;;5393240;26;20487;-85
2024/04/11 01:50:30;;;;;;;32.55;20.25;;;15.10;99.90;;;;;;5413844;26;19995;-84
2024/04/11 01:52:56;;;;;;;27.08;19.50;;;15.00;99.90;;;;;;5419070;26;19996;-84
2024/04/11 01:55:22;;;;;;;28.35;19.77;;;15.00;99.90;;;;;;5416838;26;20014;-84
2024/04/11 01:57:49;;;;;;;33.05;19.92;;;14.90;99.90;;;;;;5419873;26;20000;-84
2024/04/11 02:00:15;;;;;;;34.97;20.02;;;15.00;99.90;;;;;;5417011;26;20068;-84
2024/04/11 02:02:49;;;;;;;27.52;19.25;;;14.90;99.90;;;;;;5418607;26;20013;-84
2024/04/11 02:05:20;;;;;;;26.45;18.92;;;14.90;99.90;;;;;;5411744;26;20011;-83
2024/04/11 02:07:46;;;;;;;27.90;19.15;;;14.90;99.90;;;;;;5410391;26;19996;-84
2024/04/11 02:10:13;;;;;;;23.08;19.27;;;14.90;99.90;;;;;;5387832;26;20027;-85
2024/04/11 02:12:39;;;;;;;28.00;19.27;;;14.80;99.90;;;;;;5417522;26;20031;-83
2024/04/11 02:15:06;;;;;;;28.13;19.40;;;14.90;99.90;;;;;;5409056;26;20004;-84
2024/04/11 02:17:34;;;;;;;26.67;18.83;;;14.90;99.90;;;;;;5376122;26;20015;-84
2024/04/11 02:20:01;;;;;;;25.80;19.55;;;14.90;99.90;;;;;;5381764;26;20523;-85
2024/04/11 02:22:28;;;;;;;23.77;18.60;;;14.90;99.90;;;;;;5368145;26;20469;-85
2024/04/11 02:24:54;;;;;;;26.13;18.17;;;15.00;99.90;;;;;;5415504;26;20073;-84
2024/04/11 02:27:23;;;;;;;23.17;17.60;;;14.90;99.90;;;;;;5416902;26;20031;-84
2024/04/11 02:29:50;;;;;;;32.45;17.98;;;14.90;99.90;;;;;;5417133;26;20010;-85
2024/04/11 02:32:16;;;;;;;19.63;17.25;;;14.80;99.90;;;;;;5485855;26;19999;-85
2024/04/11 02:34:43;;;;;;;24.27;17.90;;;14.80;99.90;;;;;;5421682;26;20046;-84
2024/04/11 02:37:09;;;;;;;33.40;18.05;;;14.70;99.90;;;;;;5421584;26;19999;-84
2024/04/11 02:39:36;;;;;;;21.13;16.80;;;14.70;99.90;;;;;;5458508;26;20010;-83
2024/04/11 02:42:03;;;;;;;24.88;17.55;;;14.70;99.90;;;;;;5428547;26;20009;-84
2024/04/11 02:44:33;;;;;;;25.92;17.73;;;14.60;99.90;;;;;;5458405;26;19990;-85
2024/04/11 02:47:02;;;;;;;22.25;16.77;;;14.60;99.90;;;;;;5428683;26;20074;-84
2024/04/11 02:49:28;;;;;;;25.13;15.88;;;14.60;99.90;;;;;;5414465;26;19995;-85
2024/04/11 02:51:55;;;;;;;29.95;15.85;;;14.60;99.90;;;;;;5349473;26;20011;-85
2024/04/11 02:54:22;;;;;;;22.70;15.50;;;14.70;99.90;;;;;;5354661;26;20012;-85
2024/04/11 02:56:49;;;;;;;27.90;14.95;;;14.70;99.90;;;;;;5367335;26;20344;-85
2024/04/11 02:59:15;;;;;;;28.67;15.00;;;14.70;99.90;;;;;;5386112;26;20000;-84
2024/04/11 03:01:42;;;;;;;25.42;14.43;;;14.70;99.90;;;;;;5415121;26;20018;-84
2024/04/11 03:04:08;;;;;;;30.55;14.75;;;14.70;99.90;;;;;;5414954;26;19999;-87
2024/04/11 03:06:35;;;;;;;21.42;14.50;;;14.70;99.90;;;;;;5386786;26;20468;-86
2024/04/11 03:09:03;;;;;;;28.38;15.50;;;14.70;99.90;;;;;;5386091;26;20333;-86
2024/04/11 03:11:29;;;;;;;32.45;14.55;;;14.70;99.90;;;;;;5386562;26;20399;-85
2024/04/11 03:13:57;;;;;;;33.10;14.57;;;14.70;99.90;;;;;;5413041;26;20011;-81
2024/04/11 03:16:24;;;;;;;27.95;14.52;;;14.70;99.90;;;;;;5356606;26;20493;-80
2024/04/11 03:18:55;;;;;;;35.35;14.25;;;14.70;99.90;;;;;;5403255;26;20785;-79
2024/04/11 03:21:21;;;;;;;29.27;14.20;;;14.70;99.90;;;;;;5332872;26;20012;-80
2024/04/11 03:23:48;;;;;;;26.25;14.18;;;14.70;99.90;;;;;;5379339;26;20476;-79
2024/04/11 03:26:15;;;;;;;30.83;13.73;;;14.70;99.90;;;;;;5425676;26;20006;-80
2024/04/11 03:28:44;;;;;;;29.30;14.05;;;14.70;99.90;;;;;;5485154;26;19998;-80
2024/04/11 03:31:13;;;;;;;31.85;14.27;;;14.70;99.90;;;;;;5450776;26;19995;-80
2024/04/11 03:33:40;;;;;;;19.70;12.82;;;14.60;99.90;;;;;;5445342;26;19996;-79
2024/04/11 03:36:09;;;;;;;29.48;13.77;;;14.60;99.90;;;;;;5449808;26;20014;-80
2024/04/11 03:38:36;;;;;;;24.27;13.57;;;14.60;99.90;;;;;;5451255;26;19995;-80
2024/04/11 03:41:08;;;;;;;25.85;13.75;;;14.60;99.90;;;;;;5452772;26;19998;-80
2024/04/11 03:43:36;;;;;;;33.50;13.40;;;14.60;99.90;;;;;;5453755;26;20031;-79
2024/04/11 03:46:21;;;;;;;32.25;13.70;;;14.60;99.90;;;;;;5450939;26;19999;-81
2024/04/11 03:48:55;;;;;;;29.05;13.43;;;14.60;99.90;;;;;;5453117;26;20010;-79
2024/04/11 03:51:25;;;;;;;;;;;14.60;99.90;;;;;;5453585;26;20067;-80
2024/04/11 03:53:56;;;;;;;27.42;13.07;;;14.70;99.90;;;;;;5450660;26;19924;-80
2024/04/11 03:56:27;;;;;;;28.60;13.07;;;14.70;99.90;;;;;;5451673;26;19999;-80
2024/04/11 03:58:57;;;;;;;26.45;12.98;;;14.60;99.90;;;;;;5452910;26;19991;-80
2024/04/11 04:01:26;;;;;;;25.55;13.55;;;14.70;99.90;;;;;;5449952;26;20055;-80
2024/04/11 04:04:02;;;;;;;25.48;13.00;;;14.70;99.90;;;;;;5452797;26;19998;-78
2024/04/11 04:06:36;;;;;;;31.40;13.30;;;14.70;99.90;;;;;;5449170;26;19995;-79
2024/04/11 04:09:07;;;;;;;31.92;13.85;;;14.70;99.90;;;;;;5447415;26;20010;-79
2024/04/11 04:11:38;;;;;;;28.95;14.05;;;14.80;99.90;;;;;;5451546;26;19995;-79
2024/04/11 04:14:08;;;;;;;28.80;13.55;;;14.70;99.90;;;;;;5450439;26;20036;-79
2024/04/11 04:16:35;;;;;;;24.23;13.90;;;14.70;99.90;;;;;;5450919;26;20075;-78
2024/04/11 04:19:02;;;;;;;35.08;14.38;;;14.70;99.90;;;;;;5450537;26;20026;-78
2024/04/11 04:21:29;;;;;;;28.33;14.55;;;14.80;99.90;;;;;;5420557;26;20027;-80
2024/04/11 04:23:59;;;;;;;30.58;14.55;;;14.80;99.90;;;;;;5451561;26;20005;-79
2024/04/11 04:26:32;;;;;;;25.00;14.05;;;14.80;99.90;;;;;;5450716;26;20068;-79
2024/04/11 04:28:59;;;;;;;36.15;14.38;;;14.80;99.90;;;;;;5420541;26;20516;-84
2024/04/11 04:31:33;;;;;;;29.95;14.38;;;14.80;99.90;;;;;;5450836;26;20027;-84
2024/04/11 04:34:01;;;;;;;22.95;14.00;;;14.80;99.90;;;;;;5420792;26;20674;-84
2024/04/11 04:36:34;;;;;;;27.58;14.23;;;14.80;99.90;;;;;;5451983;26;19999;-83
2024/04/11 04:39:04;;;;;;;26.38;13.50;;;14.80;99.90;;;;;;5452549;26;19995;-83
2024/04/11 04:41:31;;;;;;;22.92;13.38;;;14.80;99.90;;;;;;5413256;26;20069;-84
2024/04/11 04:44:00;;;;;;;25.52;13.77;;;14.90;99.90;;;;;;5441860;26;19995;-84
2024/04/11 04:46:32;;;;;;;27.70;13.48;;;14.90;99.90;;;;;;5451320;26;19995;-84
2024/04/11 04:49:09;;;;;;;26.10;14.00;;;15.00;99.90;;;;;;5436646;26;20429;-83
2024/04/11 04:51:36;;;;;;;23.95;14.13;;;15.10;99.90;;;;;;5439971;26;20003;-85
2024/04/11 04:54:03;;;;;;;17.77;13.95;;;15.10;99.90;;;;;;5436371;26;19996;-84
2024/04/11 04:56:32;;;;;;;22.27;13.90;;;15.10;99.90;;;;;;5438099;26;20007;-84
2024/04/11 04:58:59;;;;;;;26.25;15.15;;;15.20;99.90;;;;;;5442783;26;20349;-84
2024/04/11 05:01:26;;;;;;;31.50;14.75;;;15.30;99.90;;;;;;5448471;26;19992;-83
2024/04/11 05:03:55;;;;;;;27.98;14.70;;;15.40;99.90;;;;;;5386081;26;20008;-84
2024/04/11 05:06:21;;;;;;;32.20;14.45;;;15.40;99.90;;;;;;5432639;26;19999;-84
2024/04/11 05:08:53;;;;;;;27.05;14.07;;;15.30;99.90;;;;;;5449195;26;20031;-83
2024/04/11 05:11:21;;;;;;;25.17;13.75;;;15.30;99.90;;;;;;5449157;26;19999;-84
2024/04/11 05:13:49;;;;;;;32.28;14.25;;;15.50;99.90;;;;;;5414533;26;20002;-84
2024/04/11 05:16:19;;;;;;;33.33;14.63;;;15.50;99.90;;;;;;5442011;26;20328;-84
2024/04/11 05:18:47;;;;;;;27.38;14.23;;;15.60;99.90;;;;;;5420985;26;20445;-83
2024/04/11 05:21:23;;;;;;;27.50;15.73;;;15.60;99.90;;;;;;5415687;26;20030;-82
2024/04/11 05:23:50;;;;;;;25.02;15.20;;;15.60;99.90;;;;;;5429885;26;20042;-83
2024/04/11 05:26:22;;;;;;;30.88;14.23;;;15.70;99.90;;;;;;5419798;26;19999;-82
2024/04/11 05:28:50;;;;;;;30.88;13.27;;;15.70;99.90;;;;;;5450015;26;20352;-83
2024/04/11 05:31:25;;;;;;;25.25;12.65;;;15.80;99.90;;;;;;5398986;26;20000;-84
2024/04/11 05:33:54;;;;;;;19.83;13.13;;;16.00;99.90;;;;;;5412050;26;20012;-83
2024/04/11 05:36:29;;;;;;;26.95;14.18;;;16.20;99.90;;;;;;5383859;26;20014;-81
2024/04/11 05:38:56;;;;;;;33.35;14.73;;;16.50;99.90;;;;;;5416345;26;20436;-83
2024/04/11 05:41:23;;;;;;;30.38;13.93;;;16.80;99.90;;;;;;5387420;26;20022;-84
2024/04/11 05:43:49;;;;;;;32.90;16.50;;;16.90;99.90;;;;;;5418060;26;20019;-81
2024/04/11 05:46:19;;;;;;;31.77;14.98;;;17.00;99.90;;;;;;5417789;26;20464;-82
2024/04/11 05:48:50;;;;;;;30.15;14.80;;;16.90;99.90;;;;;;5417442;26;20003;-82
2024/04/11 05:51:18;;;;;;;27.70;13.98;;;16.80;99.90;;;;;;5417490;26;20008;-82
2024/04/11 05:53:46;;;;;;;22.95;13.75;;;16.80;99.90;;;;;;5417522;26;20329;-82
2024/04/11 05:56:15;;;;;;;31.85;14.48;;;17.00;99.90;;;;;;5417214;26;20004;-83
2024/04/11 05:58:45;;;;;;;26.02;15.52;;;17.20;99.90;;;;;;5417563;26;19999;-82
2024/04/11 06:01:16;;;;;;;24.10;15.10;;;17.30;99.90;;;;;;5416054;26;20000;-82
2024/04/11 06:03:49;;;;;;;27.10;15.95;;;17.40;99.90;;;;;;5447375;26;20027;-82
2024/04/11 06:06:19;;;;;;;29.40;15.80;;;17.50;99.90;;;;;;5418614;26;20023;-82
2024/04/11 06:08:47;;;;;;;22.13;16.17;;;17.60;99.90;;;;;;5417463;26;20004;-82
2024/04/11 06:11:17;;;;;;;25.13;16.52;;;17.70;99.90;;;;;;5416839;26;20007;-83
2024/04/11 06:13:46;;;;;;;31.42;18.33;;;17.80;99.90;;;;;;5446979;26;20018;-83
2024/04/11 06:16:14;;;;;;;19.98;16.63;;;17.80;99.90;;;;;;5418831;26;20007;-82
2024/04/11 06:18:41;;;;;;;18.67;16.63;;;17.80;99.90;;;;;;5418688;26;20375;-82
2024/04/11 06:21:11;;;;;;;26.05;18.40;;;18.10;99.90;;;;;;5445113;26;20028;-83
2024/04/11 06:23:38;;;;;;;31.90;18.05;;;18.00;99.90;;;;;;5419216;26;20449;-82
2024/04/11 06:26:11;;;;;;;25.33;17.60;;;18.10;99.90;;;;;;5446601;26;20348;-83
2024/04/11 06:28:41;;;;;;;25.95;18.50;;;18.10;99.90;;;;;;5419178;26;20000;-85
2024/04/11 06:31:12;;;;;;;29.48;18.90;;;18.10;99.90;;;;;;5435829;26;19999;-84
2024/04/11 06:33:40;;;;;;;25.33;17.70;;;18.00;99.90;;;;;;5454283;26;19999;-84
2024/04/11 06:36:08;;;;;;;22.95;17.30;;;18.00;99.90;;;;;;5453958;26;20031;-84
2024/04/11 06:38:35;;;;;;;21.67;17.98;;;17.90;99.90;;;;;;5455727;26;20011;-85
2024/04/11 06:41:02;;;;;;;20.60;17.60;;;17.90;99.90;;;;;;5453660;26;19999;-85
2024/04/11 06:43:31;;;;;;;19.08;17.02;;;17.90;99.90;;;;;;5452706;26;20003;-84
2024/04/11 06:45:57;;;;;;;22.77;17.15;;;17.80;99.90;;;;;;5423619;26;19999;-83
2024/04/11 06:48:24;;;;;;;19.05;17.10;;;17.80;99.90;;;;;;5424100;26;20017;-89
2024/04/11 06:50:53;;;;;;;21.25;17.25;;;17.80;99.90;;;;;;5422737;26;20445;-81
2024/04/11 06:53:20;;;;;;;19.30;17.45;;;17.90;99.90;;;;;;5422650;26;20006;-81
2024/04/11 06:55:46;;;;;;;19.52;17.48;;;17.90;99.90;;;;;;5422576;26;20064;-81
2024/04/11 06:58:23;;;;;;;18.23;16.27;;;18.10;99.90;;;;;;5452366;26;19998;-81
2024/04/11 07:00:58;;;;;;;21.60;19.27;;;19.20;99.90;;;;;;5452257;26;19999;-81
2024/04/11 07:03:26;;;;;;;21.63;19.63;;;19.00;99.90;;;;;;5452526;26;19995;-83
2024/04/11 07:05:56;;;;;;;24.70;20.27;;;18.80;99.90;;;;;;5422546;26;20067;-83
2024/04/11 07:08:31;;;;;;;22.85;19.77;;;18.70;99.90;;;;;;5416235;26;20077;-83
2024/04/11 07:11:27;;;;;;;22.10;19.52;;;18.50;99.90;;;;;;5391553;26;20076;-81
2024/04/11 07:13:57;;;;;;;;;;;18.40;99.90;;;;;;5416682;26;20000;-83
2024/04/11 07:16:26;;;;;;;23.02;19.27;;;18.50;99.90;;;;;;5421450;26;19993;-83
2024/04/11 07:18:56;;;;;;;21.52;19.17;;;18.70;99.90;;;;;;5422331;26;19998;-83
2024/04/11 07:21:25;;;;;;;21.85;19.40;;;18.90;99.90;;;;;;5452089;26;19999;-83
2024/04/11 07:23:58;;;;;;;21.60;18.98;;;18.80;99.90;;;;;;5452355;26;19999;-82
2024/04/11 07:26:30;;;;;;;22.80;18.77;;;18.70;99.90;;;;;;5452016;26;20122;-83
2024/04/11 07:28:59;;;;;;;21.38;19.15;;;18.90;99.90;;;;;;5451811;26;20006;-83
2024/04/11 07:31:30;;;;;;;25.73;18.83;;;19.10;99.90;;;;;;5399514;26;20004;-82
2024/04/11 07:33:58;;;;;;;23.90;19.50;;;19.20;99.90;;;;;;5416165;26;20018;-83
2024/04/11 07:36:25;;;;;;;23.00;19.33;;;19.20;99.90;;;;;;5445255;26;19999;-82
2024/04/11 07:38:54;;;;;;;21.30;18.38;;;19.30;99.90;;;;;;5415824;26;20495;-83
2024/04/11 07:41:23;;;;;;;21.75;18.13;;;19.20;99.90;;;;;;5415935;26;20011;-82
2024/04/11 07:43:52;;;;;;;27.60;19.05;;;20.10;99.90;;;;;;5446656;26;20069;-83
2024/04/11 07:46:22;;;;;;;22.70;19.63;;;21.10;99.90;;;;;;5445672;26;19995;-80
2024/04/11 07:48:51;;;;;;;24.42;19.10;;;21.30;99.90;;;;;;5417409;26;20006;-80
2024/04/11 07:51:19;;;;;;;21.20;18.67;;;21.40;99.90;;;;;;5417493;26;20090;-79
2024/04/11 07:53:48;;;;;;;22.65;18.65;;;21.00;99.90;;;;;;5417330;26;20011;-79
2024/04/11 07:56:25;;;;;;;19.13;17.70;;;21.00;99.90;;;;;;5417224;26;20072;-80
2024/04/11 07:58:55;;;;;;;19.10;17.48;;;21.20;99.90;;;;;;5417462;26;20048;-79
2024/04/11 08:01:31;;;;;;;19.35;17.65;;;21.50;99.90;;;;;;5414197;26;20340;-80
2024/04/11 08:03:58;;;;;;;17.98;16.13;;;21.40;99.90;;;;;;5416765;26;20004;-79
2024/04/11 08:06:25;;;;;;;17.25;15.73;;;21.10;99.90;;;;;;5416756;26;19996;-80
2024/04/11 08:08:52;;;;;;;17.52;15.90;;;21.10;99.90;;;;;;5417299;26;20004;-79
2024/04/11 08:11:19;;;;;;;17.17;15.63;;;21.30;99.90;;;;;;5415364;26;20000;-80
2024/04/11 08:13:52;;;;;;;17.58;15.85;;;21.80;99.90;;;;;;5417292;26;20003;-79
2024/04/11 08:16:20;;;;;;;;;;;21.00;99.90;;;;;;5415842;26;19999;-79
2024/04/11 08:18:47;;;;;;;;;;;20.70;99.90;;;;;;5386490;26;19924;-79
2024/04/11 08:21:13;;;;;;;;;;;20.40;99.90;;;;;;5416033;26;19989;-81
2024/04/11 08:23:40;;;;;;;;;;;20.80;99.90;;;;;;5417796;26;19924;-80
2024/04/11 08:26:08;;;;;;;;;;;21.10;99.90;;;;;;5382450;26;19934;-81
2024/04/11 08:28:37;;;;;;;;;;;20.90;99.90;;;;;;5386071;26;20259;-83
2024/04/11 08:31:06;;;;;;;;;;;21.10;99.90;;;;;;5421290;26;20314;-83
2024/04/11 08:33:42;;;;;;;;;;;21.40;99.90;;;;;;5421666;26;19924;-83
2024/04/11 08:36:32;;;;;;;;;;;21.70;99.90;;;;;;5424092;26;19924;-83
2024/04/11 08:40:10;;;;;;;;;;;21.80;99.90;;;;;;5453190;26;19955;-83
2024/04/11 08:43:35;;;;;;;;;;;21.80;99.90;;;;;;5416423;26;19935;-83
2024/04/11 08:46:54;;;;;;;;;;;21.40;99.90;;;;;;5443547;26;20320;-84
2024/04/11 08:50:10;;;;;;;;;;;21.40;99.90;;;;;;5450347;26;19931;-86
2024/04/11 08:52:57;;;;;;;;;;;21.80;99.90;;;;;;5447680;26;19924;-87
2024/04/11 08:55:25;;;;;;;;;;;21.60;99.90;;;;;;5452009;26;19932;-86
2024/04/11 08:57:52;;;;;;;;;;;21.80;99.90;;;;;;5452123;26;19924;-87
2024/04/11 09:00:23;;;;;;;;;;;21.60;99.90;;;;;;5452282;26;19970;-87
2024/04/11 09:02:51;;;;;;;;;;;21.80;99.90;;;;;;5452031;26;20386;-87
2024/04/11 09:05:17;;;;;;;;;;;21.80;99.90;;;;;;5452503;26;19925;-87
2024/04/11 09:07:51;;;;;;;;;;;21.90;99.90;;;;;;5452064;26;19994;-86
2024/04/11 09:10:19;;;;;;;;;;;21.90;99.90;;;;;;5452321;26;19924;-87
2024/04/11 09:12:48;;;;;;;;;;;21.70;99.90;;;;;;5453525;26;19932;-86
2024/04/11 09:15:18;;;;;;;;;;;21.60;99.90;;;;;;5457906;26;19925;-87
2024/04/11 09:17:45;;;;;;;;;;;21.20;99.90;;;;;;5456345;26;19995;-87
2024/04/11 09:20:19;;;;;;;;;;;21.00;99.90;;;;;;5456506;26;19924;-88
2024/04/11 09:22:50;;;;;;;;;;;20.80;99.90;;;;;;5456712;26;19924;-87
2024/04/11 09:25:17;;;;;;;;;;;20.60;99.90;;;;;;5426024;26;19936;-86
2024/04/11 09:27:50;;;;;;;;;;;20.50;99.90;;;;;;5425805;26;20318;-88
2024/04/11 09:30:20;;;;;;;;;;;20.80;99.90;;;;;;5460973;26;19932;-87
2024/04/11 09:32:50;;;;;;;;;;;20.90;99.90;;;;;;5462604;26;19931;-87
2024/04/11 09:35:23;;;;;;;;;;;20.90;99.90;;;;;;5462475;26;19969;-87
2024/04/11 09:37:59;;;;;;;;;;;20.80;99.90;;;;;;5441008;26;19924;-87
2024/04/11 09:40:27;;;;;;;;;;;21.00;99.90;;;;;;5449747;26;19925;-87
2024/04/11 09:43:03;;;;;;;;;;;21.30;99.90;;;;;;5426033;26;20335;-86
2024/04/11 09:45:31;;;;;;;;;;;21.50;99.90;;;;;;5457652;26;19932;-88
2024/04/11 09:47:58;;;;;;;;;;;21.00;99.90;;;;;;5458918;26;20365;-88
2024/04/11 09:50:27;;;;;;;;;;;20.60;99.90;;;;;;5462302;26;19924;-89
2024/04/11 09:52:54;;;;;;;;;;;20.50;99.90;;;;;;5462309;26;19991;-88
2024/04/11 09:55:33;;;;;;;;;;;20.50;99.90;;;;;;5462103;26;19936;-90
2024/04/11 09:58:05;;;;;;;;;;;20.40;99.90;;;;;;5432131;26;20366;-93
2024/04/11 10:03:19;;;;;;;;;;;20.50;99.90;;;;;;5493313;26;19927;-87
2024/04/11 10:05:52;;;;;;;;;;;20.40;99.90;;;;;;5431106;26;19927;-79
2024/04/11 10:08:23;;;;;;;;;;;20.80;99.90;;;;;;5459360;26;19931;-78
2024/04/11 10:10:54;;;;;;;;;;;20.80;99.90;;;;;;5455433;26;19970;-79
2024/04/11 10:13:21;;;;;;;;;;;20.70;99.90;;;;;;5455411;26;19952;-79
2024/04/11 10:15:51;;;;;;;;;;;21.10;99.90;;;;;;5423719;26;19932;-79
2024/04/11 10:18:41;;;;;;;;;;;20.80;99.90;;;;;;5450940;26;19931;-79
2024/04/11 10:21:11;;;;;;;;;;;20.80;99.90;;;;;;5459135;26;19925;-77
2024/04/11 10:23:38;;;;;;;;;;;20.50;99.90;;;;;;5455022;26;19957;-78
2024/04/11 10:26:14;;;;;;;;;;;20.40;99.90;;;;;;5393870;26;20274;-85
2024/04/11 10:28:51;;;;;;;;;;;20.30;99.90;;;;;;5427984;26;20266;-85
2024/04/11 10:31:25;;;;;;;;;;;20.20;99.90;;;;;;5491824;26;20358;-85
2024/04/11 10:34:34;;;;;;;;;;;20.30;99.90;;;;;;5492308;26;19931;-85
2024/04/11 10:36:52;;;;;;;;;;;20.30;99.90;;;;;;5482046;26;19924;-84
2024/04/11 10:39:19;;;;;;;;;;;20.40;99.90;;;;;;5459908;26;19923;-85
2024/04/11 10:41:46;;;;;;;;;;;20.50;99.90;;;;;;5429732;26;19924;-85
2024/04/11 10:44:12;;;;;;;;;;;20.50;99.90;;;;;;5459552;26;19963;-85
2024/04/11 10:46:38;;;;;;;;;;;20.40;99.90;;;;;;5429800;26;19935;-85
2024/04/11 10:49:15;;;;;;;;;;;20.70;99.90;;;;;;5429927;26;19983;-85
2024/04/11 10:51:50;;;;;;;;;;;20.90;99.90;;;;;;5429871;26;19932;-85
2024/04/11 10:54:23;;;;;;;;;;;21.10;99.90;;;;;;5430404;26;19924;-84
2024/04/11 10:56:50;;;;;;;;;;;21.20;99.90;;;;;;5429659;26;19935;-85
2024/04/11 10:59:18;;;;;;;;;;;21.30;99.90;;;;;;5429725;26;19953;-85
2024/04/11 11:01:50;;;;;;;;;;;21.00;99.90;;;;;;5459551;26;19948;-81
2024/04/11 11:04:19;;;;;;;;;;;20.90;99.90;;;;;;5429012;26;19924;-82
2024/04/11 11:06:51;;;;;;;;;;;20.80;99.90;;;;;;5491054;26;19924;-82
2024/04/11 11:09:18;;;;;;;;;;;20.70;99.90;;;;;;5393433;26;19936;-82
2024/04/11 11:11:45;;;;;;;;;;;20.50;99.90;;;;;;5420501;26;19931;-83
2024/04/11 11:14:17;;;;;;;;;;;20.30;99.90;;;;;;5491181;26;19935;-80
2024/04/11 11:16:44;;;;;;;;;;;20.50;99.90;;;;;;5458667;26;19932;-79
2024/04/11 11:19:12;;;;;;;;;;;20.70;99.90;;;;;;5491390;26;20365;-79
2024/04/11 11:21:42;;;;;;;;;;;20.60;99.90;;;;;;5490930;26;19935;-78
2024/04/11 11:24:14;;;;;;;;;;;20.60;99.90;;;;;;5490634;26;19931;-79
2024/04/11 11:26:46;;;;;;;;;;;20.80;99.90;;;;;;5490909;26;19939;-79
2024/04/11 11:29:19;;;;;;;;;;;20.80;99.90;;;;;;5490690;26;19931;-78
2024/04/11 11:31:52;;;;;;;;;;;20.70;99.90;;;;;;5490292;26;19924;-78
2024/04/11 11:34:27;;;;;;;;;;;20.80;99.90;;;;;;5490892;26;19928;-78
2024/04/11 11:36:59;;;;;;;;;;;20.50;99.90;;;;;;5489279;26;20273;-80
2024/04/11 11:39:33;;;;;;;;;;;20.60;99.90;;;;;;5458874;26;19923;-79
2024/04/11 11:42:08;;;;;;;;;;;20.70;99.90;;;;;;5458480;26;19940;-79
2024/04/11 11:45:05;;;;;;;;;;;20.60;99.90;;;;;;5490672;26;20373;-78
2024/04/11 11:47:36;;;;;;;;;;;20.90;99.90;;;;;;5490334;26;19923;-79
2024/04/11 11:50:07;;;;;;;;;;;20.70;99.90;;;;;;5490529;26;19949;-77
2024/04/11 11:52:37;;;;;;;;;;;20.60;99.90;;;;;;5458354;26;20426;-76
2024/04/11 11:55:04;;;;;;;;;;;20.40;99.90;;;;;;5458488;26;19932;-80
2024/04/11 11:57:39;;;;;;;;;;;20.60;99.90;;;;;;5490322;26;19924;-79
2024/04/11 12:00:19;;;;;;;;;;;20.70;99.90;;;;;;5458588;26;20358;-81
2024/04/11 12:02:51;;;;;;;;;;;20.70;99.90;;;;;;5489899;26;19924;-77
2024/04/11 12:05:23;;;;;;;;;;;20.60;99.90;;;;;;5458274;26;19924;-77
2024/04/11 12:07:52;;;;;;;;;;;20.70;99.90;;;;;;5489353;26;19924;-77
2024/04/11 12:10:20;;;;;;;;;;;20.80;99.90;;;;;;5458335;26;19992;-77
2024/04/11 12:12:48;;;;;;;;;;;20.90;99.90;;;;;;5490137;26;20373;-78
2024/04/11 12:15:14;;;;;;;;;;;21.00;99.90;;;;;;5428042;26;19948;-77
2024/04/11 12:17:40;;;;;;;;;;;21.10;99.90;;;;;;5489949;26;19928;-77
2024/04/11 12:20:07;;;;;;;;;;;21.10;99.90;;;;;;5490052;26;20390;-77
2024/04/11 12:22:36;;;;;;;;;;;21.30;99.90;;;;;;5489797;26;19992;-77
2024/04/11 12:25:02;;;;;;;;;;;21.10;99.90;;;;;;5456587;26;19935;-79
2024/04/11 12:27:28;;;;;;;;;;;21.00;99.90;;;;;;5489565;26;19936;-80
2024/04/11 12:29:59;;;;;;;;;;;20.90;99.90;;;;;;5457729;26;19924;-83
2024/04/11 12:32:25;;;;;;;;;;;21.00;99.90;;;;;;5457660;26;19940;-78
2024/04/11 12:34:55;;;;;;;;;;;21.20;99.90;;;;;;5457506;26;19923;-79
2024/04/11 12:37:24;;;;;;;;;;;21.10;99.90;;;;;;5457491;26;19923;-80
2024/04/11 12:39:54;;;;;;;;;;;20.90;99.90;;;;;;5457403;26;19923;-79
2024/04/11 12:42:22;;;;;;;;;;;20.70;99.90;;;;;;5457543;26;20366;-81
2024/04/11 12:44:55;;;;;;;;;;;20.40;99.90;;;;;;5457865;26;20369;-77
2024/04/11 12:47:38;;;;;;;;;;;20.50;99.90;;;;;;5458813;26;19935;-78
2024/04/11 12:50:14;;;;;;;;;;;20.60;99.90;;;;;;5462172;26;19931;-77
2024/04/11 12:52:44;;;;;;;;;;;20.60;99.90;;;;;;5461473;26;19927;-79
2024/04/11 12:55:11;;;;;;;;;;;20.70;99.90;;;;;;5462505;26;19924;-78
2024/04/11 12:57:41;;;;;;;;;;;20.70;99.90;;;;;;5494230;26;19992;-77
2024/04/11 13:00:32;;;;;;;;;;;20.70;99.90;;;;;;5461833;26;19956;-78
2024/04/11 13:03:06;;;;;;;;;;;20.70;99.90;;;;;;5493127;26;19936;-78
2024/04/11 13:05:51;;;;;;;;;;;20.60;99.90;;;;;;5461405;26;20082;-77
2024/04/11 13:08:20;;;;;;;;;;;20.50;99.90;;;;;;5493586;26;19924;-77
2024/04/11 13:10:49;;;;;;;;;;;20.60;99.90;;;;;;5493072;26;19923;-78
2024/04/11 13:13:18;;;;;;;;;;;20.50;99.90;;;;;;5460965;26;19931;-79
2024/04/11 13:15:49;;;;;;;;;;;20.40;99.90;;;;;;5460730;26;19924;-79
2024/04/11 13:18:28;;;;;;;;;;;20.40;99.90;;;;;;5460276;26;19932;-80
2024/04/11 13:20:55;;;;;;;;;;;20.30;99.90;;;;;;5430631;26;19930;-80
2024/04/11 13:23:22;;;;;;;;;;;20.20;99.90;;;;;;5463857;26;19931;-91
2024/04/11 13:25:53;;;;;;;;;;;20.10;99.90;;;;;;5435204;26;19964;-90